Hoppet Af Brantevik — SKWL — position and weather

sailwx.info

Track history (hours):
 
Tides and Currents Weather Stations Pressure Air Temp Water Temp Dewpoint Dewpoint Depression Visibility Wind Speed Wind Dir Waves Ship Positions

Hoppet Af Brantevik

Last reported at 2014-Aug-27 22:33 UTC. Time now 2014-Aug-27 23:20 UTC.
Position N 55°31' E 014°21'.

Length 17 m; draft 2.2 m.

Type: Ship. MMSI: 265525900.

Date/timePositionNaut miles runAvg speedWind from/ knotsBaromVisibWave heightAir tempDewpointWater temp
2014-Aug-27 22:33N 55°31' E 014°21'0 0.0
2014-Aug-27 21:33N 55°31' E 014°21'0 0.0
2014-Aug-27 20:27N 55°31' E 014°21'0 0.0
2014-Aug-27 19:27N 55°31' E 014°21'0 0.0
2014-Aug-27 18:33N 55°31' E 014°21'0 0.0
2014-Aug-27 17:33N 55°31' E 014°21'0 0.0
2014-Aug-27 16:33N 55°31' E 014°21'0 0.0
2014-Aug-27 15:33N 55°31' E 014°21'0 0.0
2014-Aug-27 14:33N 55°31' E 014°21'  
2014-Aug-25 08:33N 55°21' E 014°36'10 0.5
2014-Aug-24 10:15N 55°15' E 014°51'5 7.2
2014-Aug-24 09:33N 55°17' E 014°59'7 6.9
2014-Aug-24 08:33N 55°19' E 015°10'0 0.4
2014-Aug-24 07:22N 55°19' E 015°11'0 0.0
2014-Aug-24 06:34N 55°19' E 015°11'0 0.0
2014-Aug-24 05:28N 55°19' E 015°11'0 0.0
2014-Aug-24 04:28N 55°19' E 015°11'0 0.0
2014-Aug-24 03:28N 55°19' E 015°11'0 0.0
2014-Aug-24 02:22N 55°19' E 015°11'0 0.0
2014-Aug-24 01:22N 55°19' E 015°11'0 0.0
2014-Aug-24 00:28N 55°19' E 015°11'0 0.0
2014-Aug-23 23:28N 55°19' E 015°11'0 0.0
2014-Aug-23 22:28N 55°19' E 015°11'0 0.0
2014-Aug-23 21:28N 55°19' E 015°11'0 0.0
2014-Aug-23 20:28N 55°19' E 015°11'0 0.0
2014-Aug-23 19:28N 55°19' E 015°11'11 0.7
2014-Aug-23 03:30N 55°09' E 015°07'0 0.0
2014-Aug-23 02:24N 55°09' E 015°07'0 0.0
2014-Aug-23 01:30N 55°09' E 015°07'0 0.0
2014-Aug-23 00:31N 55°09' E 015°07'0 0.0
2014-Aug-22 23:30N 55°09' E 015°07'0 0.0
2014-Aug-22 22:30N 55°09' E 015°07'0 0.0
2014-Aug-22 21:06N 55°09' E 015°07'0 0.0
2014-Aug-22 20:13N 55°09' E 015°07'0 0.0
2014-Aug-22 19:30N 55°09' E 015°07'0 0.0
2014-Aug-22 18:30N 55°09' E 015°07'0 0.0
2014-Aug-22 17:30N 55°09' E 015°07'0 0.0
2014-Aug-22 16:30N 55°09' E 015°07'0 0.0
2014-Aug-22 15:30N 55°09' E 015°07'3 0.6
2014-Aug-22 10:33N 55°11' E 015°03'7 6.9
2014-Aug-22 09:33N 55°15' E 014°53'4 0.6
2014-Aug-22 03:07N 55°17' E 014°48'0 0.0
2014-Aug-21 23:25N 55°17' E 014°48'0 0.0
2014-Aug-21 22:31N 55°17' E 014°48'0 0.0
2014-Aug-21 21:25N 55°17' E 014°48'0 0.0
2014-Aug-21 20:19N 55°17' E 014°48'0 0.0
2014-Aug-21 19:31N 55°17' E 014°48'0 0.0
2014-Aug-21 16:13N 55°17' E 014°48'0 0.0
2014-Aug-21 15:24N 55°17' E 014°48'0 0.0
2014-Aug-21 14:33N 55°17' E 014°48'0 0.0
2014-Aug-21 13:32N 55°17' E 014°48'5 5.0
2014-Aug-21 12:34N 55°21' E 014°43'6 6.1
2014-Aug-21 11:33N 55°24' E 014°34'  
Track history (hours):
 
Tides and Currents Weather Stations Pressure Air Temp Water Temp Dewpoint Dewpoint Depression Visibility Wind Speed Wind Dir Waves Ship Positions

Hoppet Af Brantevik

Last reported at 2014-Aug-27 22:33 UTC. Time now 2014-Aug-27 23:20 UTC.
Position N 55°31' E 014°21'.

Length 17 m; draft 2.2 m.

Type: Ship. MMSI: 265525900.

Date/timePositionNaut miles runAvg speedWind from/ knotsBaromVisibWave heightAir tempDewpointWater temp
2014-Aug-27 22:33N 55°31' E 014°21'0 0.0
2014-Aug-27 21:33N 55°31' E 014°21'0 0.0
2014-Aug-27 20:27N 55°31' E 014°21'0 0.0
2014-Aug-27 19:27N 55°31' E 014°21'0 0.0
2014-Aug-27 18:33N 55°31' E 014°21'0 0.0
2014-Aug-27 17:33N 55°31' E 014°21'0 0.0
2014-Aug-27 16:33N 55°31' E 014°21'0 0.0
2014-Aug-27 15:33N 55°31' E 014°21'0 0.0
2014-Aug-27 14:33N 55°31' E 014°21'  
2014-Aug-25 08:33N 55°21' E 014°36'10 0.5
2014-Aug-24 10:15N 55°15' E 014°51'5 7.2
2014-Aug-24 09:33N 55°17' E 014°59'7 6.9
2014-Aug-24 08:33N 55°19' E 015°10'0 0.4
2014-Aug-24 07:22N 55°19' E 015°11'0 0.0
2014-Aug-24 06:34N 55°19' E 015°11'0 0.0
2014-Aug-24 05:28N 55°19' E 015°11'0 0.0
2014-Aug-24 04:28N 55°19' E 015°11'0 0.0
2014-Aug-24 03:28N 55°19' E 015°11'0 0.0
2014-Aug-24 02:22N 55°19' E 015°11'0 0.0
2014-Aug-24 01:22N 55°19' E 015°11'0 0.0
2014-Aug-24 00:28N 55°19' E 015°11'0 0.0
2014-Aug-23 23:28N 55°19' E 015°11'0 0.0
2014-Aug-23 22:28N 55°19' E 015°11'0 0.0
2014-Aug-23 21:28N 55°19' E 015°11'0 0.0
2014-Aug-23 20:28N 55°19' E 015°11'0 0.0
2014-Aug-23 19:28N 55°19' E 015°11'11 0.7
2014-Aug-23 03:30N 55°09' E 015°07'0 0.0
2014-Aug-23 02:24N 55°09' E 015°07'0 0.0
2014-Aug-23 01:30N 55°09' E 015°07'0 0.0
2014-Aug-23 00:31N 55°09' E 015°07'0 0.0
2014-Aug-22 23:30N 55°09' E 015°07'0 0.0
2014-Aug-22 22:30N 55°09' E 015°07'0 0.0
2014-Aug-22 21:06N 55°09' E 015°07'0 0.0
2014-Aug-22 20:13N 55°09' E 015°07'0 0.0
2014-Aug-22 19:30N 55°09' E 015°07'0 0.0
2014-Aug-22 18:30N 55°09' E 015°07'0 0.0
2014-Aug-22 17:30N 55°09' E 015°07'0 0.0
2014-Aug-22 16:30N 55°09' E 015°07'0 0.0
2014-Aug-22 15:30N 55°09' E 015°07'3 0.6
2014-Aug-22 10:33N 55°11' E 015°03'7 6.9
2014-Aug-22 09:33N 55°15' E 014°53'4 0.6
2014-Aug-22 03:07N 55°17' E 014°48'0 0.0
2014-Aug-21 23:25N 55°17' E 014°48'0 0.0
2014-Aug-21 22:31N 55°17' E 014°48'0 0.0
2014-Aug-21 21:25N 55°17' E 014°48'0 0.0
2014-Aug-21 20:19N 55°17' E 014°48'0 0.0
2014-Aug-21 19:31N 55°17' E 014°48'0 0.0
2014-Aug-21 16:13N 55°17' E 014°48'0 0.0
2014-Aug-21 15:24N 55°17' E 014°48'0 0.0
2014-Aug-21 14:33N 55°17' E 014°48'0 0.0
2014-Aug-21 13:32N 55°17' E 014°48'5 5.0
2014-Aug-21 12:34N 55°21' E 014°43'6 6.1
2014-Aug-21 11:33N 55°24' E 014°34'  

Dump ship's entire track history